sensor_id;sensor_type;location;lat;lon;timestamp;temperature;humidity
16128;DHT22;8168;49.036;7.690;2022-09-29T00:02:22;7.50;99.90
16128;DHT22;8168;49.036;7.690;2022-09-29T00:04:53;7.50;99.90
16128;DHT22;8168;49.036;7.690;2022-09-29T00:07:24;7.50;99.90
16128;DHT22;8168;49.036;7.690;2022-09-29T00:09:54;7.90;99.90
16128;DHT22;8168;49.036;7.690;2022-09-29T00:12:25;7.50;99.90
16128;DHT22;8168;49.036;7.690;2022-09-29T00:14:55;7.50;99.90
16128;DHT22;8168;49.036;7.690;2022-09-29T00:17:26;7.50;99.90
16128;DHT22;8168;49.036;7.690;2022-09-29T00:19:57;7.40;99.90
16128;DHT22;8168;49.036;7.690;2022-09-29T00:22:28;7.40;99.90
16128;DHT22;8168;49.036;7.690;2022-09-29T00:24:58;7.80;99.90
16128;DHT22;8168;49.036;7.690;2022-09-29T00:27:29;7.70;99.90
16128;DHT22;8168;49.036;7.690;2022-09-29T00:29:59;7.30;99.90
16128;DHT22;8168;49.036;7.690;2022-09-29T00:32:30;7.30;99.90
16128;DHT22;8168;49.036;7.690;2022-09-29T00:35:00;7.80;99.90
16128;DHT22;8168;49.036;7.690;2022-09-29T00:37:31;7.50;99.90
16128;DHT22;8168;49.036;7.690;2022-09-29T00:40:03;7.30;99.90
16128;DHT22;8168;49.036;7.690;2022-09-29T00:42:34;7.20;99.90
16128;DHT22;8168;49.036;7.690;2022-09-29T00:45:12;7.20;99.90
16128;DHT22;8168;49.036;7.690;2022-09-29T00:47:48;7.20;99.90
16128;DHT22;8168;49.036;7.690;2022-09-29T00:50:26;7.20;99.90
16128;DHT22;8168;49.036;7.690;2022-09-29T00:53:01;7.10;99.90
16128;DHT22;8168;49.036;7.690;2022-09-29T00:55:36;7.50;99.90
16128;DHT22;8168;49.036;7.690;2022-09-29T01:01:03;7.10;99.90
16128;DHT22;8168;49.036;7.690;2022-09-29T01:03:41;7.10;99.90
16128;DHT22;8168;49.036;7.690;2022-09-29T01:06:13;7.10;99.90
16128;DHT22;8168;49.036;7.690;2022-09-29T01:11:22;7.00;99.90
16128;DHT22;8168;49.036;7.690;2022-09-29T01:13:53;7.50;99.90
16128;DHT22;8168;49.036;7.690;2022-09-29T01:16:25;7.10;99.90
16128;DHT22;8168;49.036;7.690;2022-09-29T01:18:57;6.90;99.90
16128;DHT22;8168;49.036;7.690;2022-09-29T01:21:50;6.90;99.90
16128;DHT22;8168;49.036;7.690;2022-09-29T01:25:42;6.90;99.90
16128;DHT22;8168;49.036;7.690;2022-09-29T01:41:58;6.70;99.90
16128;DHT22;8168;49.036;7.690;2022-09-29T01:47:13;6.70;99.90
16128;DHT22;8168;49.036;7.690;2022-09-29T01:49:53;6.80;99.90
16128;DHT22;8168;49.036;7.690;2022-09-29T01:52:29;7.10;99.90
16128;DHT22;8168;49.036;7.690;2022-09-29T01:55:02;7.10;99.90
16128;DHT22;8168;49.036;7.690;2022-09-29T01:57:38;7.10;99.90
16128;DHT22;8168;49.036;7.690;2022-09-29T02:00:14;6.70;99.90
16128;DHT22;8168;49.036;7.690;2022-09-29T02:03:04;6.70;99.90
16128;DHT22;8168;49.036;7.690;2022-09-29T02:05:47;6.70;99.90
16128;DHT22;8168;49.036;7.690;2022-09-29T02:08:36;6.90;99.90
16128;DHT22;8168;49.036;7.690;2022-09-29T02:11:11;6.70;99.90
16128;DHT22;8168;49.036;7.690;2022-09-29T02:16:31;6.60;99.90
16128;DHT22;8168;49.036;7.690;2022-09-29T02:19:19;6.60;99.90
16128;DHT22;8168;49.036;7.690;2022-09-29T02:21:50;6.60;99.90
16128;DHT22;8168;49.036;7.690;2022-09-29T02:24:24;6.70;99.90
16128;DHT22;8168;49.036;7.690;2022-09-29T02:26:55;6.90;99.90
16128;DHT22;8168;49.036;7.690;2022-09-29T02:29:26;7.00;99.90
16128;DHT22;8168;49.036;7.690;2022-09-29T02:31:57;6.60;99.90
16128;DHT22;8168;49.036;7.690;2022-09-29T02:34:33;6.60;99.90
16128;DHT22;8168;49.036;7.690;2022-09-29T02:49:19;6.60;99.90
16128;DHT22;8168;49.036;7.690;2022-09-29T02:52:13;6.50;99.90
16128;DHT22;8168;49.036;7.690;2022-09-29T03:00:37;6.50;99.90
16128;DHT22;8168;49.036;7.690;2022-09-29T03:03:08;6.50;99.90
16128;DHT22;8168;49.036;7.690;2022-09-29T03:05:39;6.60;99.90
16128;DHT22;8168;49.036;7.690;2022-09-29T03:08:09;6.50;99.90
16128;DHT22;8168;49.036;7.690;2022-09-29T03:10:40;6.50;99.90
16128;DHT22;8168;49.036;7.690;2022-09-29T03:13:10;7.00;99.90
16128;DHT22;8168;49.036;7.690;2022-09-29T03:15:41;6.50;99.90
16128;DHT22;8168;49.036;7.690;2022-09-29T03:18:11;6.90;99.90
16128;DHT22;8168;49.036;7.690;2022-09-29T03:20:42;6.60;99.90
16128;DHT22;8168;49.036;7.690;2022-09-29T03:23:13;6.50;99.90
16128;DHT22;8168;49.036;7.690;2022-09-29T03:25:43;6.50;99.90
16128;DHT22;8168;49.036;7.690;2022-09-29T03:28:14;6.50;99.90
16128;DHT22;8168;49.036;7.690;2022-09-29T03:30:45;6.60;99.90
16128;DHT22;8168;49.036;7.690;2022-09-29T03:33:16;6.60;99.90
16128;DHT22;8168;49.036;7.690;2022-09-29T03:35:47;6.60;99.90
16128;DHT22;8168;49.036;7.690;2022-09-29T03:38:18;6.60;99.90
16128;DHT22;8168;49.036;7.690;2022-09-29T03:40:49;6.80;99.90
16128;DHT22;8168;49.036;7.690;2022-09-29T03:43:19;6.60;99.90
16128;DHT22;8168;49.036;7.690;2022-09-29T03:45:51;6.90;99.90
16128;DHT22;8168;49.036;7.690;2022-09-29T03:48:23;6.60;99.90
16128;DHT22;8168;49.036;7.690;2022-09-29T03:50:54;6.60;99.90
16128;DHT22;8168;49.036;7.690;2022-09-29T03:53:25;6.70;99.90
16128;DHT22;8168;49.036;7.690;2022-09-29T03:55:55;6.60;99.90
16128;DHT22;8168;49.036;7.690;2022-09-29T03:58:26;6.60;99.90
16128;DHT22;8168;49.036;7.690;2022-09-29T04:00:57;6.90;99.90
16128;DHT22;8168;49.036;7.690;2022-09-29T04:03:30;6.60;99.90
16128;DHT22;8168;49.036;7.690;2022-09-29T04:06:01;6.60;99.90
16128;DHT22;8168;49.036;7.690;2022-09-29T04:08:34;6.70;99.90
16128;DHT22;8168;49.036;7.690;2022-09-29T04:11:05;6.70;99.90
16128;DHT22;8168;49.036;7.690;2022-09-29T04:13:36;7.00;99.90
16128;DHT22;8168;49.036;7.690;2022-09-29T04:16:06;6.70;99.90
16128;DHT22;8168;49.036;7.690;2022-09-29T04:18:37;6.70;99.90
16128;DHT22;8168;49.036;7.690;2022-09-29T04:21:08;6.70;99.90
16128;DHT22;8168;49.036;7.690;2022-09-29T04:23:39;7.00;99.90
16128;DHT22;8168;49.036;7.690;2022-09-29T04:26:10;6.70;99.90
16128;DHT22;8168;49.036;7.690;2022-09-29T04:28:41;6.70;99.90
16128;DHT22;8168;49.036;7.690;2022-09-29T04:31:12;6.70;99.90
16128;DHT22;8168;49.036;7.690;2022-09-29T04:33:42;6.70;99.90
16128;DHT22;8168;49.036;7.690;2022-09-29T04:36:13;6.70;99.90
16128;DHT22;8168;49.036;7.690;2022-09-29T04:38:44;8.10;99.90
16128;DHT22;8168;49.036;7.690;2022-09-29T04:41:14;6.80;99.90
16128;DHT22;8168;49.036;7.690;2022-09-29T04:43:45;6.70;99.90
16128;DHT22;8168;49.036;7.690;2022-09-29T04:46:16;6.70;99.90
16128;DHT22;8168;49.036;7.690;2022-09-29T04:48:46;7.10;99.90
16128;DHT22;8168;49.036;7.690;2022-09-29T04:51:17;6.80;99.90
16128;DHT22;8168;49.036;7.690;2022-09-29T04:53:47;6.80;99.90
16128;DHT22;8168;49.036;7.690;2022-09-29T04:56:18;7.10;99.90
16128;DHT22;8168;49.036;7.690;2022-09-29T04:58:49;6.80;99.90
16128;DHT22;8168;49.036;7.690;2022-09-29T05:01:19;6.80;99.90
16128;DHT22;8168;49.036;7.690;2022-09-29T05:03:50;7.10;99.90
16128;DHT22;8168;49.036;7.690;2022-09-29T05:06:21;6.80;99.90
16128;DHT22;8168;49.036;7.690;2022-09-29T05:08:52;6.80;99.90
16128;DHT22;8168;49.036;7.690;2022-09-29T05:11:22;6.80;99.90
16128;DHT22;8168;49.036;7.690;2022-09-29T05:13:53;6.90;99.90
16128;DHT22;8168;49.036;7.690;2022-09-29T05:16:24;7.20;99.90
16128;DHT22;8168;49.036;7.690;2022-09-29T05:18:54;6.80;99.90
16128;DHT22;8168;49.036;7.690;2022-09-29T05:21:25;6.80;99.90
16128;DHT22;8168;49.036;7.690;2022-09-29T05:23:56;6.90;99.90
16128;DHT22;8168;49.036;7.690;2022-09-29T05:26:27;7.20;99.90
16128;DHT22;8168;49.036;7.690;2022-09-29T05:28:57;7.10;99.90
16128;DHT22;8168;49.036;7.690;2022-09-29T05:31:28;6.90;99.90
16128;DHT22;8168;49.036;7.690;2022-09-29T05:33:58;7.40;99.90
16128;DHT22;8168;49.036;7.690;2022-09-29T05:36:29;6.80;99.90
16128;DHT22;8168;49.036;7.690;2022-09-29T05:39:00;7.10;99.90
16128;DHT22;8168;49.036;7.690;2022-09-29T05:41:30;6.90;99.90
16128;DHT22;8168;49.036;7.690;2022-09-29T05:44:01;6.90;99.90
16128;DHT22;8168;49.036;7.690;2022-09-29T05:46:32;6.80;99.90
16128;DHT22;8168;49.036;7.690;2022-09-29T05:49:02;6.90;99.90
16128;DHT22;8168;49.036;7.690;2022-09-29T05:51:33;6.90;99.90
16128;DHT22;8168;49.036;7.690;2022-09-29T05:54:04;6.90;99.90
16128;DHT22;8168;49.036;7.690;2022-09-29T05:56:34;6.90;99.90
16128;DHT22;8168;49.036;7.690;2022-09-29T05:59:05;7.00;99.90
16128;DHT22;8168;49.036;7.690;2022-09-29T06:01:36;7.00;99.90
16128;DHT22;8168;49.036;7.690;2022-09-29T06:04:06;7.00;99.90
16128;DHT22;8168;49.036;7.690;2022-09-29T06:06:37;7.00;99.90
16128;DHT22;8168;49.036;7.690;2022-09-29T06:09:09;7.00;99.90
16128;DHT22;8168;49.036;7.690;2022-09-29T06:11:40;7.40;99.90
16128;DHT22;8168;49.036;7.690;2022-09-29T06:14:10;7.10;99.90
16128;DHT22;8168;49.036;7.690;2022-09-29T06:16:41;7.00;99.90
16128;DHT22;8168;49.036;7.690;2022-09-29T06:19:12;7.00;99.90
16128;DHT22;8168;49.036;7.690;2022-09-29T06:21:43;7.20;99.90
16128;DHT22;8168;49.036;7.690;2022-09-29T06:24:13;7.10;99.90
16128;DHT22;8168;49.036;7.690;2022-09-29T06:26:44;7.10;99.90
16128;DHT22;8168;49.036;7.690;2022-09-29T06:29:15;7.20;99.90
16128;DHT22;8168;49.036;7.690;2022-09-29T06:31:45;7.10;99.90
16128;DHT22;8168;49.036;7.690;2022-09-29T06:34:16;7.10;99.90
16128;DHT22;8168;49.036;7.690;2022-09-29T06:36:47;7.40;99.90
16128;DHT22;8168;49.036;7.690;2022-09-29T06:39:36;7.40;99.90
16128;DHT22;8168;49.036;7.690;2022-09-29T06:42:07;7.10;99.90
16128;DHT22;8168;49.036;7.690;2022-09-29T06:44:37;7.30;99.90
16128;DHT22;8168;49.036;7.690;2022-09-29T06:47:08;7.20;99.90
16128;DHT22;8168;49.036;7.690;2022-09-29T06:49:39;5.50;99.90
16128;DHT22;8168;49.036;7.690;2022-09-29T06:52:10;7.40;99.90
16128;DHT22;8168;49.036;7.690;2022-09-29T06:54:40;7.40;99.90
16128;DHT22;8168;49.036;7.690;2022-09-29T06:57:11;7.10;99.90
16128;DHT22;8168;49.036;7.690;2022-09-29T06:59:43;7.20;99.90
16128;DHT22;8168;49.036;7.690;2022-09-29T07:02:13;7.40;99.90
16128;DHT22;8168;49.036;7.690;2022-09-29T07:04:44;7.20;99.90
16128;DHT22;8168;49.036;7.690;2022-09-29T07:07:17;7.30;99.90
16128;DHT22;8168;49.036;7.690;2022-09-29T07:09:47;7.30;99.90
16128;DHT22;8168;49.036;7.690;2022-09-29T07:12:18;7.30;99.90
16128;DHT22;8168;49.036;7.690;2022-09-29T07:14:49;7.40;99.90
16128;DHT22;8168;49.036;7.690;2022-09-29T07:17:20;7.40;99.90
16128;DHT22;8168;49.036;7.690;2022-09-29T07:19:50;7.40;99.90
16128;DHT22;8168;49.036;7.690;2022-09-29T07:22:24;7.50;99.90
16128;DHT22;8168;49.036;7.690;2022-09-29T07:24:54;7.40;99.90
16128;DHT22;8168;49.036;7.690;2022-09-29T07:27:25;7.40;99.90
16128;DHT22;8168;49.036;7.690;2022-09-29T07:29:55;7.70;99.90
16128;DHT22;8168;49.036;7.690;2022-09-29T07:32:26;7.90;99.90
16128;DHT22;8168;49.036;7.690;2022-09-29T07:34:57;7.50;99.90
16128;DHT22;8168;49.036;7.690;2022-09-29T07:37:29;7.60;99.90
16128;DHT22;8168;49.036;7.690;2022-09-29T07:40:00;7.80;99.90
16128;DHT22;8168;49.036;7.690;2022-09-29T07:42:30;7.70;99.90
16128;DHT22;8168;49.036;7.690;2022-09-29T07:45:01;7.70;99.90
16128;DHT22;8168;49.036;7.690;2022-09-29T07:47:31;7.70;99.90
16128;DHT22;8168;49.036;7.690;2022-09-29T07:50:02;7.80;99.90
16128;DHT22;8168;49.036;7.690;2022-09-29T07:52:33;7.80;99.90
16128;DHT22;8168;49.036;7.690;2022-09-29T07:55:04;7.90;99.90
16128;DHT22;8168;49.036;7.690;2022-09-29T07:57:36;7.90;99.90
16128;DHT22;8168;49.036;7.690;2022-09-29T08:00:07;8.00;99.90
16128;DHT22;8168;49.036;7.690;2022-09-29T08:02:38;8.00;99.90
16128;DHT22;8168;49.036;7.690;2022-09-29T08:05:09;8.10;99.90
16128;DHT22;8168;49.036;7.690;2022-09-29T08:07:39;8.20;99.90
16128;DHT22;8168;49.036;7.690;2022-09-29T08:10:10;8.20;99.90
16128;DHT22;8168;49.036;7.690;2022-09-29T08:12:41;8.20;99.90
16128;DHT22;8168;49.036;7.690;2022-09-29T08:15:11;8.30;99.90
16128;DHT22;8168;49.036;7.690;2022-09-29T08:17:42;8.30;99.90
16128;DHT22;8168;49.036;7.690;2022-09-29T08:20:12;8.40;99.90
16128;DHT22;8168;49.036;7.690;2022-09-29T08:22:43;8.40;99.90
16128;DHT22;8168;49.036;7.690;2022-09-29T08:25:17;8.50;99.90
16128;DHT22;8168;49.036;7.690;2022-09-29T08:27:48;8.60;99.90
16128;DHT22;8168;49.036;7.690;2022-09-29T08:30:19;8.60;99.90
16128;DHT22;8168;49.036;7.690;2022-09-29T08:32:51;8.70;99.90
16128;DHT22;8168;49.036;7.690;2022-09-29T08:35:22;8.80;99.90
16128;DHT22;8168;49.036;7.690;2022-09-29T08:37:53;8.90;99.90
16128;DHT22;8168;49.036;7.690;2022-09-29T08:40:28;9.00;99.90
16128;DHT22;8168;49.036;7.690;2022-09-29T08:43:21;9.10;99.90
16128;DHT22;8168;49.036;7.690;2022-09-29T08:48:42;9.30;99.90
16128;DHT22;8168;49.036;7.690;2022-09-29T08:51:39;9.30;99.90
16128;DHT22;8168;49.036;7.690;2022-09-29T08:56:51;9.50;99.90
16128;DHT22;8168;49.036;7.690;2022-09-29T08:59:22;9.60;99.90
16128;DHT22;8168;49.036;7.690;2022-09-29T09:10:49;10.10;99.90
16128;DHT22;8168;49.036;7.690;2022-09-29T09:13:18;10.20;99.90
16128;DHT22;8168;49.036;7.690;2022-09-29T09:15:58;10.30;99.90
16128;DHT22;8168;49.036;7.690;2022-09-29T09:18:58;10.40;99.90
16128;DHT22;8168;49.036;7.690;2022-09-29T09:24:16;10.60;99.90
16128;DHT22;8168;49.036;7.690;2022-09-29T09:26:47;10.70;99.90
16128;DHT22;8168;49.036;7.690;2022-09-29T09:29:36;10.70;99.90
16128;DHT22;8168;49.036;7.690;2022-09-29T09:32:12;10.90;99.90
16128;DHT22;8168;49.036;7.690;2022-09-29T09:34:52;11.00;99.90
16128;DHT22;8168;49.036;7.690;2022-09-29T09:37:29;11.10;99.90
16128;DHT22;8168;49.036;7.690;2022-09-29T09:40:20;11.20;99.90
16128;DHT22;8168;49.036;7.690;2022-09-29T09:43:04;11.30;99.90
16128;DHT22;8168;49.036;7.690;2022-09-29T09:45:44;11.40;99.90
16128;DHT22;8168;49.036;7.690;2022-09-29T09:48:27;11.40;99.90
16128;DHT22;8168;49.036;7.690;2022-09-29T09:51:31;11.40;99.90
16128;DHT22;8168;49.036;7.690;2022-09-29T09:54:10;11.50;99.90
16128;DHT22;8168;49.036;7.690;2022-09-29T09:59:43;11.70;99.90
16128;DHT22;8168;49.036;7.690;2022-09-29T10:02:20;11.70;99.90
16128;DHT22;8168;49.036;7.690;2022-09-29T10:04:53;11.80;99.90
16128;DHT22;8168;49.036;7.690;2022-09-29T10:07:28;11.80;99.90
16128;DHT22;8168;49.036;7.690;2022-09-29T10:10:03;11.80;99.90
16128;DHT22;8168;49.036;7.690;2022-09-29T10:12:42;11.90;99.90
16128;DHT22;8168;49.036;7.690;2022-09-29T10:15:19;12.00;99.90
16128;DHT22;8168;49.036;7.690;2022-09-29T10:18:12;12.00;99.90
16128;DHT22;8168;49.036;7.690;2022-09-29T10:20:44;12.10;99.90
16128;DHT22;8168;49.036;7.690;2022-09-29T10:23:35;12.10;99.90
16128;DHT22;8168;49.036;7.690;2022-09-29T10:26:12;12.10;99.90
16128;DHT22;8168;49.036;7.690;2022-09-29T10:28:49;12.20;99.90
16128;DHT22;8168;49.036;7.690;2022-09-29T10:31:33;12.20;99.90
16128;DHT22;8168;49.036;7.690;2022-09-29T10:34:16;12.20;99.90
16128;DHT22;8168;49.036;7.690;2022-09-29T10:37:21;12.30;99.90
16128;DHT22;8168;49.036;7.690;2022-09-29T10:42:42;12.70;99.90
16128;DHT22;8168;49.036;7.690;2022-09-29T10:50:47;13.30;99.90
16128;DHT22;8168;49.036;7.690;2022-09-29T10:55:56;13.40;99.90
16128;DHT22;8168;49.036;7.690;2022-09-29T10:58:31;13.30;99.90
16128;DHT22;8168;49.036;7.690;2022-09-29T11:01:15;13.30;99.90
16128;DHT22;8168;49.036;7.690;2022-09-29T11:06:30;13.30;99.90
16128;DHT22;8168;49.036;7.690;2022-09-29T11:09:24;13.30;99.90
16128;DHT22;8168;49.036;7.690;2022-09-29T11:11:57;13.40;99.90
16128;DHT22;8168;49.036;7.690;2022-09-29T11:14:40;13.40;99.90
16128;DHT22;8168;49.036;7.690;2022-09-29T11:17:27;13.50;99.90
16128;DHT22;8168;49.036;7.690;2022-09-29T11:20:00;13.50;99.90
16128;DHT22;8168;49.036;7.690;2022-09-29T11:28:05;13.60;99.90
16128;DHT22;8168;49.036;7.690;2022-09-29T11:31:21;13.60;99.90
16128;DHT22;8168;49.036;7.690;2022-09-29T11:34:35;13.60;99.90
16128;DHT22;8168;49.036;7.690;2022-09-29T11:40:30;13.50;99.90
16128;DHT22;8168;49.036;7.690;2022-09-29T11:43:00;13.50;99.90
16128;DHT22;8168;49.036;7.690;2022-09-29T11:57:31;13.70;99.90
16128;DHT22;8168;49.036;7.690;2022-09-29T12:00:09;13.80;99.90
16128;DHT22;8168;49.036;7.690;2022-09-29T12:09:01;14.00;99.90
16128;DHT22;8168;49.036;7.690;2022-09-29T12:14:19;13.90;99.90
16128;DHT22;8168;49.036;7.690;2022-09-29T12:16:58;13.90;99.90
16128;DHT22;8168;49.036;7.690;2022-09-29T12:19:36;13.90;99.90
16128;DHT22;8168;49.036;7.690;2022-09-29T12:22:12;13.90;99.90
16128;DHT22;8168;49.036;7.690;2022-09-29T12:24:54;13.90;99.90
16128;DHT22;8168;49.036;7.690;2022-09-29T12:27:38;13.90;99.90
16128;DHT22;8168;49.036;7.690;2022-09-29T12:32:53;13.90;99.90
16128;DHT22;8168;49.036;7.690;2022-09-29T12:39:03;13.80;99.90
16128;DHT22;8168;49.036;7.690;2022-09-29T12:41:37;13.70;99.90
16128;DHT22;8168;49.036;7.690;2022-09-29T12:47:46;13.70;99.90
16128;DHT22;8168;49.036;7.690;2022-09-29T12:50:38;13.80;99.90
16128;DHT22;8168;49.036;7.690;2022-09-29T12:53:26;13.80;99.90
16128;DHT22;8168;49.036;7.690;2022-09-29T12:56:11;13.70;99.90
16128;DHT22;8168;49.036;7.690;2022-09-29T12:58:55;13.70;99.90
16128;DHT22;8168;49.036;7.690;2022-09-29T13:01:31;13.60;99.90
16128;DHT22;8168;49.036;7.690;2022-09-29T13:04:39;13.60;99.90
16128;DHT22;8168;49.036;7.690;2022-09-29T13:10:57;13.70;99.90
16128;DHT22;8168;49.036;7.690;2022-09-29T13:16:31;13.60;99.90
16128;DHT22;8168;49.036;7.690;2022-09-29T13:19:36;13.60;99.90
16128;DHT22;8168;49.036;7.690;2022-09-29T13:27:44;13.50;99.90
16128;DHT22;8168;49.036;7.690;2022-09-29T13:30:20;13.50;99.90
16128;DHT22;8168;49.036;7.690;2022-09-29T13:33:08;13.50;99.90
16128;DHT22;8168;49.036;7.690;2022-09-29T13:35:42;13.50;99.90
16128;DHT22;8168;49.036;7.690;2022-09-29T13:38:22;13.60;99.90
16128;DHT22;8168;49.036;7.690;2022-09-29T13:41:16;13.60;99.90
16128;DHT22;8168;49.036;7.690;2022-09-29T13:51:51;13.80;99.90
16128;DHT22;8168;49.036;7.690;2022-09-29T13:54:40;13.80;99.90
16128;DHT22;8168;49.036;7.690;2022-09-29T14:00:00;13.80;99.90
16128;DHT22;8168;49.036;7.690;2022-09-29T14:02:41;13.90;99.90
16128;DHT22;8168;49.036;7.690;2022-09-29T14:13:16;13.80;99.90
16128;DHT22;8168;49.036;7.690;2022-09-29T14:18:43;13.70;99.90
16128;DHT22;8168;49.036;7.690;2022-09-29T14:30:05;13.10;99.90
16128;DHT22;8168;49.036;7.690;2022-09-29T14:36:32;13.10;99.90
16128;DHT22;8168;49.036;7.690;2022-09-29T14:38:42;12.80;99.90
16128;DHT22;8168;49.036;7.690;2022-09-29T14:41:26;12.60;99.90
16128;DHT22;8168;49.036;7.690;2022-09-29T14:44:07;12.50;99.90
16128;DHT22;8168;49.036;7.690;2022-09-29T14:52:32;12.20;99.90
16128;DHT22;8168;49.036;7.690;2022-09-29T14:55:13;12.10;99.90
16128;DHT22;8168;49.036;7.690;2022-09-29T15:03:40;12.10;99.90
16128;DHT22;8168;49.036;7.690;2022-09-29T15:06:18;12.10;99.90
16128;DHT22;8168;49.036;7.690;2022-09-29T15:11:40;12.10;99.90
16128;DHT22;8168;49.036;7.690;2022-09-29T15:14:27;12.10;99.90
16128;DHT22;8168;49.036;7.690;2022-09-29T15:28:45;12.10;99.90
16128;DHT22;8168;49.036;7.690;2022-09-29T15:31:18;12.20;99.90
16128;DHT22;8168;49.036;7.690;2022-09-29T15:33:50;12.20;99.90
16128;DHT22;8168;49.036;7.690;2022-09-29T15:36:27;12.20;99.90
16128;DHT22;8168;49.036;7.690;2022-09-29T15:41:32;12.40;99.90
16128;DHT22;8168;49.036;7.690;2022-09-29T15:44:13;12.50;99.90
16128;DHT22;8168;49.036;7.690;2022-09-29T15:46:49;12.50;99.90
16128;DHT22;8168;49.036;7.690;2022-09-29T15:49:25;12.50;99.90
16128;DHT22;8168;49.036;7.690;2022-09-29T15:52:03;12.60;99.90
16128;DHT22;8168;49.036;7.690;2022-09-29T15:54:37;12.60;99.90
16128;DHT22;8168;49.036;7.690;2022-09-29T15:57:49;12.60;99.90
16128;DHT22;8168;49.036;7.690;2022-09-29T16:03:24;12.50;99.90
16128;DHT22;8168;49.036;7.690;2022-09-29T16:06:03;12.40;99.90
16128;DHT22;8168;49.036;7.690;2022-09-29T16:08:39;12.30;99.90
16128;DHT22;8168;49.036;7.690;2022-09-29T16:11:19;12.30;99.90
16128;DHT22;8168;49.036;7.690;2022-09-29T16:13:54;12.30;99.90
16128;DHT22;8168;49.036;7.690;2022-09-29T16:16:32;12.20;99.90
16128;DHT22;8168;49.036;7.690;2022-09-29T16:19:17;12.20;99.90
16128;DHT22;8168;49.036;7.690;2022-09-29T16:22:01;12.20;99.90
16128;DHT22;8168;49.036;7.690;2022-09-29T16:24:53;12.20;99.90
16128;DHT22;8168;49.036;7.690;2022-09-29T16:27:52;12.20;99.90
16128;DHT22;8168;49.036;7.690;2022-09-29T16:30:29;12.20;99.90
16128;DHT22;8168;49.036;7.690;2022-09-29T16:33:13;12.20;99.90
16128;DHT22;8168;49.036;7.690;2022-09-29T16:36:12;12.20;99.90
16128;DHT22;8168;49.036;7.690;2022-09-29T16:38:44;12.10;99.90
16128;DHT22;8168;49.036;7.690;2022-09-29T16:46:51;12.10;99.90
16128;DHT22;8168;49.036;7.690;2022-09-29T16:49:31;12.20;99.90
16128;DHT22;8168;49.036;7.690;2022-09-29T16:52:15;12.20;99.90
16128;DHT22;8168;49.036;7.690;2022-09-29T16:54:47;12.10;99.90
16128;DHT22;8168;49.036;7.690;2022-09-29T16:57:21;12.10;99.90
16128;DHT22;8168;49.036;7.690;2022-09-29T16:59:57;12.00;99.90
16128;DHT22;8168;49.036;7.690;2022-09-29T17:02:28;12.00;99.90
16128;DHT22;8168;49.036;7.690;2022-09-29T17:04:59;11.90;99.90
16128;DHT22;8168;49.036;7.690;2022-09-29T17:07:38;11.90;99.90
16128;DHT22;8168;49.036;7.690;2022-09-29T17:10:16;11.90;99.90
16128;DHT22;8168;49.036;7.690;2022-09-29T17:12:47;11.90;99.90
16128;DHT22;8168;49.036;7.690;2022-09-29T17:15:18;11.80;99.90
16128;DHT22;8168;49.036;7.690;2022-09-29T17:17:49;11.80;99.90
16128;DHT22;8168;49.036;7.690;2022-09-29T17:20:22;11.80;99.90
16128;DHT22;8168;49.036;7.690;2022-09-29T17:22:58;11.70;99.90
16128;DHT22;8168;49.036;7.690;2022-09-29T17:25:31;11.70;99.90
16128;DHT22;8168;49.036;7.690;2022-09-29T17:28:02;11.60;99.90
16128;DHT22;8168;49.036;7.690;2022-09-29T17:30:45;11.50;99.90
16128;DHT22;8168;49.036;7.690;2022-09-29T17:33:17;11.40;99.90
16128;DHT22;8168;49.036;7.690;2022-09-29T17:35:49;11.50;99.90
16128;DHT22;8168;49.036;7.690;2022-09-29T17:38:22;11.40;99.90
16128;DHT22;8168;49.036;7.690;2022-09-29T17:41:00;11.40;99.90
16128;DHT22;8168;49.036;7.690;2022-09-29T17:43:34;11.40;99.90
16128;DHT22;8168;49.036;7.690;2022-09-29T17:46:05;11.50;99.90
16128;DHT22;8168;49.036;7.690;2022-09-29T17:48:36;11.40;99.90
16128;DHT22;8168;49.036;7.690;2022-09-29T17:51:15;11.50;99.90
16128;DHT22;8168;49.036;7.690;2022-09-29T17:53:49;11.40;99.90
16128;DHT22;8168;49.036;7.690;2022-09-29T17:56:24;11.50;99.90
16128;DHT22;8168;49.036;7.690;2022-09-29T17:59:03;11.50;99.90
16128;DHT22;8168;49.036;7.690;2022-09-29T18:01:35;11.50;99.90
16128;DHT22;8168;49.036;7.690;2022-09-29T18:04:07;11.50;99.90
16128;DHT22;8168;49.036;7.690;2022-09-29T18:06:37;11.40;99.90
16128;DHT22;8168;49.036;7.690;2022-09-29T18:09:16;11.40;99.90
16128;DHT22;8168;49.036;7.690;2022-09-29T18:11:47;11.40;99.90
16128;DHT22;8168;49.036;7.690;2022-09-29T18:14:17;11.40;99.90
16128;DHT22;8168;49.036;7.690;2022-09-29T18:16:48;11.40;99.90
16128;DHT22;8168;49.036;7.690;2022-09-29T18:19:19;11.40;99.90
16128;DHT22;8168;49.036;7.690;2022-09-29T18:21:49;11.40;99.90
16128;DHT22;8168;49.036;7.690;2022-09-29T18:24:21;11.40;99.90
16128;DHT22;8168;49.036;7.690;2022-09-29T18:26:51;11.40;99.90
16128;DHT22;8168;49.036;7.690;2022-09-29T18:29:22;11.30;99.90
16128;DHT22;8168;49.036;7.690;2022-09-29T18:31:53;11.30;99.90
16128;DHT22;8168;49.036;7.690;2022-09-29T18:34:23;11.30;99.90
16128;DHT22;8168;49.036;7.690;2022-09-29T18:36:54;11.20;99.90
16128;DHT22;8168;49.036;7.690;2022-09-29T18:39:24;11.20;99.90
16128;DHT22;8168;49.036;7.690;2022-09-29T18:41:55;11.20;99.90
16128;DHT22;8168;49.036;7.690;2022-09-29T18:44:26;11.30;99.90
16128;DHT22;8168;49.036;7.690;2022-09-29T18:46:59;11.30;99.90
16128;DHT22;8168;49.036;7.690;2022-09-29T18:49:29;11.20;99.90
16128;DHT22;8168;49.036;7.690;2022-09-29T18:52:00;11.20;99.90
16128;DHT22;8168;49.036;7.690;2022-09-29T18:54:31;11.20;99.90
16128;DHT22;8168;49.036;7.690;2022-09-29T18:57:02;11.30;99.90
16128;DHT22;8168;49.036;7.690;2022-09-29T18:59:33;11.30;99.90
16128;DHT22;8168;49.036;7.690;2022-09-29T19:02:10;11.20;99.90
16128;DHT22;8168;49.036;7.690;2022-09-29T19:04:41;11.20;99.90
16128;DHT22;8168;49.036;7.690;2022-09-29T19:07:12;11.20;99.90
16128;DHT22;8168;49.036;7.690;2022-09-29T19:09:43;11.20;99.90
16128;DHT22;8168;49.036;7.690;2022-09-29T19:12:14;11.20;99.90
16128;DHT22;8168;49.036;7.690;2022-09-29T19:14:45;11.10;99.90
16128;DHT22;8168;49.036;7.690;2022-09-29T19:17:16;11.00;99.90
16128;DHT22;8168;49.036;7.690;2022-09-29T19:19:47;11.00;99.90
16128;DHT22;8168;49.036;7.690;2022-09-29T19:22:18;10.90;99.90
16128;DHT22;8168;49.036;7.690;2022-09-29T19:24:49;10.90;99.90
16128;DHT22;8168;49.036;7.690;2022-09-29T19:27:19;10.90;99.90
16128;DHT22;8168;49.036;7.690;2022-09-29T19:29:53;10.90;99.90
16128;DHT22;8168;49.036;7.690;2022-09-29T19:32:24;10.90;99.90
16128;DHT22;8168;49.036;7.690;2022-09-29T19:34:55;10.90;99.90
16128;DHT22;8168;49.036;7.690;2022-09-29T19:37:26;10.90;99.90
16128;DHT22;8168;49.036;7.690;2022-09-29T19:39:56;10.90;99.90
16128;DHT22;8168;49.036;7.690;2022-09-29T19:42:27;10.90;99.90
16128;DHT22;8168;49.036;7.690;2022-09-29T19:44:58;10.90;99.90
16128;DHT22;8168;49.036;7.690;2022-09-29T19:47:28;10.90;99.90
16128;DHT22;8168;49.036;7.690;2022-09-29T19:49:59;10.90;99.90
16128;DHT22;8168;49.036;7.690;2022-09-29T19:52:48;10.90;99.90
16128;DHT22;8168;49.036;7.690;2022-09-29T19:55:19;10.90;99.90
16128;DHT22;8168;49.036;7.690;2022-09-29T19:57:50;11.00;99.90
16128;DHT22;8168;49.036;7.690;2022-09-29T20:00:21;11.00;99.90
16128;DHT22;8168;49.036;7.690;2022-09-29T20:02:52;11.00;99.90
16128;DHT22;8168;49.036;7.690;2022-09-29T20:05:22;10.90;99.90